Terminal Aerodrome Forecast
Issued by NWS Tallahassee, FL

Home | Current Version | Previous Version | Text Only | Print | Product List | Glossary On
Versions: 1 2 3 4 5 6 7 8 9 10 11 12 13 14 15
000
FTUS42 KTAE 010500
TAFTLH
TAF
KTLH 010523Z 0106/0206 VRB03KT P6SM SCT250
     FM012200 20007KT P6SM SCT060 SCT250
     FM020200 VRB03KT P6SM SCT250=

USA.gov is the U.S. government's official web portal to all federal, state and local government web resources and services.